Pagina principale
METAR-TAF:

METAR-TAF

Aeroporti :

Aeroporto di Berna

Berna, Svizzera

latitudine: 46-55N, longitudine: 007-30E, altezza: 505 m

Osservazione

Il bollettino è stato emesso 18 minuti fa, alle 02:50 UTC
Vento 6 kt da nord-ovest
Temperature 11°C
Umidità 62%
Pressione 1026 hPa
Visibilità 10 km o più
Nuvoloso ad un'altezza di 7000 ft

METAR: LSZB 240250Z AUTO 32006KT 9999 BKN070 11/04 Q1026

Ora: 04:08 (03:08 UTC)

Previsione

Il bollettino è stato emesso 12 ore e 43 minuti fa, alle 14:25 UTC
Previsione valida dal 23 alle 15 UTC al 23 alle 24 UTC
Vento 10 kt da ovest/sud-ovest
Visibilità 10 km o più
Nuvoloso ad un'altezza di 5500 ft

TAF: LSZB 231425Z 2315/2324 24010KT 9999 BKN055

Osservazioni e previsioni meteorologiche di più di 4000 aeroporti (messaggi METAR e TAF).

Le stazioni disponibili sono rappresentate dai dischi gialli e rossi sulla carta.

Puntare il mouse per vedere il nome della stazione.

Clicca sopra per visualizzare le osservazioni e previsioni meteorologiche.

Per cambiare la mappa : fare clic sui pulsanti verdi con una croce nera per ingrandire, il pulsante verde con un trattino per diminuire, o sulla freccia verde per le mappe adiacenti.


METAR-TAF: